Abbott, Texas
Current Conditions -  °F | °C
As of 4:50 PM on Thursday 23 Oct 2014 (Local Time) from KINJ Reporting Station
Clear Clear  
Wind Chill: 81°   Ceiling: Unl
Heat Index: 81°   Visibility: 10mi
Dew Point: 54°   Wind: 3mph
Humidity: 40%   Direction: 140°SE
Pressure: 30.07"   Gusts: NA
Location:  31.88°N, 97.07°W
Report Text: KINJ 232150Z AUTO 14003KT 10SM CLR 27/12 A3007 RMK AO2 T02700123
Loading
Personal Weather Stations






























Interactive Weather Map New forecast layout! Learn more

10-Day Weather Forecast

Advertisements
Track Severe Weather on mobile